sensor_id;sensor_type;location;lat;lon;timestamp;P1;durP1;ratioP1;P2;durP2;ratioP2
5876;SDS011;2964;42.144;24.730;2024-02-28T00:01:47;18.27;;;10.37;;
5876;SDS011;2964;42.144;24.730;2024-02-28T00:04:14;20.23;;;11.80;;
5876;SDS011;2964;42.144;24.730;2024-02-28T00:06:41;26.20;;;10.60;;
5876;SDS011;2964;42.144;24.730;2024-02-28T00:09:08;20.33;;;10.37;;
5876;SDS011;2964;42.144;24.730;2024-02-28T00:11:40;24.90;;;10.67;;
5876;SDS011;2964;42.144;24.730;2024-02-28T00:14:09;20.77;;;11.03;;
5876;SDS011;2964;42.144;24.730;2024-02-28T00:16:39;23.73;;;11.70;;
5876;SDS011;2964;42.144;24.730;2024-02-28T00:19:06;23.87;;;10.70;;
5876;SDS011;2964;42.144;24.730;2024-02-28T00:21:33;18.83;;;9.73;;
5876;SDS011;2964;42.144;24.730;2024-02-28T00:24:00;23.67;;;11.17;;
5876;SDS011;2964;42.144;24.730;2024-02-28T00:26:27;15.33;;;10.13;;
5876;SDS011;2964;42.144;24.730;2024-02-28T00:28:53;19.60;;;11.43;;
5876;SDS011;2964;42.144;24.730;2024-02-28T00:31:20;18.77;;;10.40;;
5876;SDS011;2964;42.144;24.730;2024-02-28T00:33:49;21.73;;;10.43;;
5876;SDS011;2964;42.144;24.730;2024-02-28T00:36:15;16.03;;;11.00;;
5876;SDS011;2964;42.144;24.730;2024-02-28T00:38:42;22.17;;;12.23;;
5876;SDS011;2964;42.144;24.730;2024-02-28T00:41:09;29.13;;;11.03;;
5876;SDS011;2964;42.144;24.730;2024-02-28T00:43:36;17.87;;;11.40;;
5876;SDS011;2964;42.144;24.730;2024-02-28T00:46:03;21.60;;;11.57;;
5876;SDS011;2964;42.144;24.730;2024-02-28T00:48:29;23.30;;;11.80;;
5876;SDS011;2964;42.144;24.730;2024-02-28T00:50:59;23.10;;;12.03;;
5876;SDS011;2964;42.144;24.730;2024-02-28T00:53:25;16.23;;;11.97;;
5876;SDS011;2964;42.144;24.730;2024-02-28T00:55:52;21.30;;;11.67;;
5876;SDS011;2964;42.144;24.730;2024-02-28T00:58:20;20.70;;;12.50;;
5876;SDS011;2964;42.144;24.730;2024-02-28T01:00:47;17.57;;;12.10;;
5876;SDS011;2964;42.144;24.730;2024-02-28T01:03:14;21.77;;;11.80;;
5876;SDS011;2964;42.144;24.730;2024-02-28T01:05:43;19.40;;;11.33;;
5876;SDS011;2964;42.144;24.730;2024-02-28T01:08:11;20.73;;;11.33;;
5876;SDS011;2964;42.144;24.730;2024-02-28T01:10:38;19.47;;;11.67;;
5876;SDS011;2964;42.144;24.730;2024-02-28T01:13:06;21.47;;;11.30;;
5876;SDS011;2964;42.144;24.730;2024-02-28T01:15:32;23.03;;;12.30;;
5876;SDS011;2964;42.144;24.730;2024-02-28T01:17:59;23.90;;;12.13;;
5876;SDS011;2964;42.144;24.730;2024-02-28T01:20:26;18.63;;;11.27;;
5876;SDS011;2964;42.144;24.730;2024-02-28T01:22:53;17.97;;;11.27;;
5876;SDS011;2964;42.144;24.730;2024-02-28T01:25:21;18.30;;;10.60;;
5876;SDS011;2964;42.144;24.730;2024-02-28T01:27:48;25.17;;;11.43;;
5876;SDS011;2964;42.144;24.730;2024-02-28T01:30:14;20.80;;;10.90;;
5876;SDS011;2964;42.144;24.730;2024-02-28T01:32:41;20.53;;;11.17;;
5876;SDS011;2964;42.144;24.730;2024-02-28T01:35:08;25.77;;;10.80;;
5876;SDS011;2964;42.144;24.730;2024-02-28T01:37:35;22.27;;;11.57;;
5876;SDS011;2964;42.144;24.730;2024-02-28T01:40:02;21.20;;;11.23;;
5876;SDS011;2964;42.144;24.730;2024-02-28T01:42:31;18.90;;;11.40;;
5876;SDS011;2964;42.144;24.730;2024-02-28T01:44:58;20.30;;;10.37;;
5876;SDS011;2964;42.144;24.730;2024-02-28T01:47:25;14.33;;;10.20;;
5876;SDS011;2964;42.144;24.730;2024-02-28T01:49:52;20.30;;;11.07;;
5876;SDS011;2964;42.144;24.730;2024-02-28T01:52:19;19.43;;;10.80;;
5876;SDS011;2964;42.144;24.730;2024-02-28T01:54:47;15.90;;;10.57;;
5876;SDS011;2964;42.144;24.730;2024-02-28T01:57:14;30.10;;;11.03;;
5876;SDS011;2964;42.144;24.730;2024-02-28T01:59:43;18.50;;;10.83;;
5876;SDS011;2964;42.144;24.730;2024-02-28T02:02:10;26.27;;;11.17;;
5876;SDS011;2964;42.144;24.730;2024-02-28T02:04:37;24.90;;;10.37;;
5876;SDS011;2964;42.144;24.730;2024-02-28T02:07:04;18.33;;;10.13;;
5876;SDS011;2964;42.144;24.730;2024-02-28T02:09:34;21.60;;;12.27;;
5876;SDS011;2964;42.144;24.730;2024-02-28T02:12:01;22.83;;;11.37;;
5876;SDS011;2964;42.144;24.730;2024-02-28T02:14:28;23.07;;;10.67;;
5876;SDS011;2964;42.144;24.730;2024-02-28T02:16:56;20.47;;;10.67;;
5876;SDS011;2964;42.144;24.730;2024-02-28T02:19:23;23.47;;;11.60;;
5876;SDS011;2964;42.144;24.730;2024-02-28T02:21:52;20.23;;;9.83;;
5876;SDS011;2964;42.144;24.730;2024-02-28T02:24:21;23.40;;;10.67;;
5876;SDS011;2964;42.144;24.730;2024-02-28T02:26:48;24.37;;;11.77;;
5876;SDS011;2964;42.144;24.730;2024-02-28T02:29:17;25.13;;;10.27;;
5876;SDS011;2964;42.144;24.730;2024-02-28T02:31:44;22.33;;;11.07;;
5876;SDS011;2964;42.144;24.730;2024-02-28T02:34:10;26.03;;;10.53;;
5876;SDS011;2964;42.144;24.730;2024-02-28T02:36:37;22.60;;;10.70;;
5876;SDS011;2964;42.144;24.730;2024-02-28T02:39:04;32.00;;;11.40;;
5876;SDS011;2964;42.144;24.730;2024-02-28T02:41:34;41.77;;;11.70;;
5876;SDS011;2964;42.144;24.730;2024-02-28T02:44:01;15.10;;;10.60;;
5876;SDS011;2964;42.144;24.730;2024-02-28T02:46:28;24.57;;;10.57;;
5876;SDS011;2964;42.144;24.730;2024-02-28T02:48:54;22.20;;;11.13;;
5876;SDS011;2964;42.144;24.730;2024-02-28T02:51:21;18.57;;;10.93;;
5876;SDS011;2964;42.144;24.730;2024-02-28T02:53:48;19.90;;;10.73;;
5876;SDS011;2964;42.144;24.730;2024-02-28T02:56:15;26.70;;;11.90;;
5876;SDS011;2964;42.144;24.730;2024-02-28T02:58:43;20.63;;;10.80;;
5876;SDS011;2964;42.144;24.730;2024-02-28T03:01:10;28.53;;;11.83;;
5876;SDS011;2964;42.144;24.730;2024-02-28T03:03:36;21.80;;;11.40;;
5876;SDS011;2964;42.144;24.730;2024-02-28T03:06:03;27.43;;;11.87;;
5876;SDS011;2964;42.144;24.730;2024-02-28T03:08:31;18.83;;;11.10;;
5876;SDS011;2964;42.144;24.730;2024-02-28T03:10:58;18.17;;;10.53;;
5876;SDS011;2964;42.144;24.730;2024-02-28T03:13:24;20.60;;;11.27;;
5876;SDS011;2964;42.144;24.730;2024-02-28T03:15:52;29.97;;;12.17;;
5876;SDS011;2964;42.144;24.730;2024-02-28T03:18:19;31.70;;;11.73;;
5876;SDS011;2964;42.144;24.730;2024-02-28T03:20:46;20.80;;;11.90;;
5876;SDS011;2964;42.144;24.730;2024-02-28T03:23:13;25.33;;;11.40;;
5876;SDS011;2964;42.144;24.730;2024-02-28T03:25:39;34.03;;;11.27;;
5876;SDS011;2964;42.144;24.730;2024-02-28T03:28:06;24.20;;;12.43;;
5876;SDS011;2964;42.144;24.730;2024-02-28T03:30:33;17.30;;;11.60;;
5876;SDS011;2964;42.144;24.730;2024-02-28T03:33:01;22.63;;;11.97;;
5876;SDS011;2964;42.144;24.730;2024-02-28T03:35:28;20.07;;;12.10;;
5876;SDS011;2964;42.144;24.730;2024-02-28T03:37:55;21.57;;;11.83;;
5876;SDS011;2964;42.144;24.730;2024-02-28T03:40:22;34.27;;;14.30;;
5876;SDS011;2964;42.144;24.730;2024-02-28T03:42:48;27.50;;;13.70;;
5876;SDS011;2964;42.144;24.730;2024-02-28T03:45:15;27.87;;;13.40;;
5876;SDS011;2964;42.144;24.730;2024-02-28T03:47:42;24.63;;;12.90;;
5876;SDS011;2964;42.144;24.730;2024-02-28T03:50:11;27.50;;;13.57;;
5876;SDS011;2964;42.144;24.730;2024-02-28T03:52:38;29.83;;;13.03;;
5876;SDS011;2964;42.144;24.730;2024-02-28T03:55:05;22.97;;;12.87;;
5876;SDS011;2964;42.144;24.730;2024-02-28T03:57:32;27.53;;;12.83;;
5876;SDS011;2964;42.144;24.730;2024-02-28T04:00:00;28.77;;;13.37;;
5876;SDS011;2964;42.144;24.730;2024-02-28T04:02:27;19.67;;;11.57;;
5876;SDS011;2964;42.144;24.730;2024-02-28T04:04:54;26.27;;;11.93;;
5876;SDS011;2964;42.144;24.730;2024-02-28T04:07:22;20.00;;;13.37;;
5876;SDS011;2964;42.144;24.730;2024-02-28T04:09:49;33.87;;;13.77;;
5876;SDS011;2964;42.144;24.730;2024-02-28T04:12:16;33.63;;;13.30;;
5876;SDS011;2964;42.144;24.730;2024-02-28T04:14:42;40.20;;;12.97;;
5876;SDS011;2964;42.144;24.730;2024-02-28T04:17:09;23.30;;;11.80;;
5876;SDS011;2964;42.144;24.730;2024-02-28T04:19:36;33.57;;;12.17;;
5876;SDS011;2964;42.144;24.730;2024-02-28T04:22:04;31.13;;;13.13;;
5876;SDS011;2964;42.144;24.730;2024-02-28T04:24:32;31.57;;;12.83;;
5876;SDS011;2964;42.144;24.730;2024-02-28T04:26:59;27.67;;;13.17;;
5876;SDS011;2964;42.144;24.730;2024-02-28T04:29:28;33.87;;;12.47;;
5876;SDS011;2964;42.144;24.730;2024-02-28T04:31:54;26.60;;;12.53;;
5876;SDS011;2964;42.144;24.730;2024-02-28T04:34:21;32.20;;;13.07;;
5876;SDS011;2964;42.144;24.730;2024-02-28T04:36:48;31.40;;;14.37;;
5876;SDS011;2964;42.144;24.730;2024-02-28T04:39:14;30.93;;;14.50;;
5876;SDS011;2964;42.144;24.730;2024-02-28T04:41:42;26.43;;;13.47;;
5876;SDS011;2964;42.144;24.730;2024-02-28T04:44:09;36.00;;;16.30;;
5876;SDS011;2964;42.144;24.730;2024-02-28T04:46:37;29.40;;;18.03;;
5876;SDS011;2964;42.144;24.730;2024-02-28T04:49:03;38.10;;;24.30;;
5876;SDS011;2964;42.144;24.730;2024-02-28T04:51:30;45.30;;;27.27;;
5876;SDS011;2964;42.144;24.730;2024-02-28T04:53:57;49.20;;;30.07;;
5876;SDS011;2964;42.144;24.730;2024-02-28T04:56:23;46.43;;;27.93;;
5876;SDS011;2964;42.144;24.730;2024-02-28T04:58:51;55.00;;;30.43;;
5876;SDS011;2964;42.144;24.730;2024-02-28T05:01:18;53.60;;;29.73;;
5876;SDS011;2964;42.144;24.730;2024-02-28T05:03:45;48.60;;;29.73;;
5876;SDS011;2964;42.144;24.730;2024-02-28T05:06:11;54.20;;;29.77;;
5876;SDS011;2964;42.144;24.730;2024-02-28T05:08:38;47.37;;;29.00;;
5876;SDS011;2964;42.144;24.730;2024-02-28T05:11:05;45.67;;;27.70;;
5876;SDS011;2964;42.144;24.730;2024-02-28T05:13:31;45.53;;;28.47;;
5876;SDS011;2964;42.144;24.730;2024-02-28T05:15:59;45.30;;;27.97;;
5876;SDS011;2964;42.144;24.730;2024-02-28T05:18:26;50.33;;;28.73;;
5876;SDS011;2964;42.144;24.730;2024-02-28T05:20:53;50.70;;;29.27;;
5876;SDS011;2964;42.144;24.730;2024-02-28T05:23:20;51.10;;;30.17;;
5876;SDS011;2964;42.144;24.730;2024-02-28T05:25:46;51.43;;;29.03;;
5876;SDS011;2964;42.144;24.730;2024-02-28T05:28:13;53.80;;;28.97;;
5876;SDS011;2964;42.144;24.730;2024-02-28T05:30:40;49.60;;;29.93;;
5876;SDS011;2964;42.144;24.730;2024-02-28T05:33:08;42.93;;;28.60;;
5876;SDS011;2964;42.144;24.730;2024-02-28T05:35:36;51.77;;;26.63;;
5876;SDS011;2964;42.144;24.730;2024-02-28T05:38:03;44.90;;;27.43;;
5876;SDS011;2964;42.144;24.730;2024-02-28T05:40:30;44.77;;;25.80;;
5876;SDS011;2964;42.144;24.730;2024-02-28T05:42:56;44.97;;;26.10;;
5876;SDS011;2964;42.144;24.730;2024-02-28T05:45:23;42.37;;;26.03;;
5876;SDS011;2964;42.144;24.730;2024-02-28T05:47:50;43.97;;;24.97;;
5876;SDS011;2964;42.144;24.730;2024-02-28T05:50:18;51.70;;;25.93;;
5876;SDS011;2964;42.144;24.730;2024-02-28T05:52:45;42.13;;;25.70;;
5876;SDS011;2964;42.144;24.730;2024-02-28T05:55:11;53.90;;;23.97;;
5876;SDS011;2964;42.144;24.730;2024-02-28T05:57:38;41.87;;;24.07;;
5876;SDS011;2964;42.144;24.730;2024-02-28T06:00:05;47.57;;;23.90;;
5876;SDS011;2964;42.144;24.730;2024-02-28T06:02:35;39.33;;;24.33;;
5876;SDS011;2964;42.144;24.730;2024-02-28T06:05:02;38.70;;;23.13;;
5876;SDS011;2964;42.144;24.730;2024-02-28T06:07:30;38.70;;;21.50;;
5876;SDS011;2964;42.144;24.730;2024-02-28T06:09:56;44.83;;;24.43;;
5876;SDS011;2964;42.144;24.730;2024-02-28T06:12:23;44.63;;;24.67;;
5876;SDS011;2964;42.144;24.730;2024-02-28T06:14:50;47.17;;;23.33;;
5876;SDS011;2964;42.144;24.730;2024-02-28T06:17:16;45.20;;;23.77;;
5876;SDS011;2964;42.144;24.730;2024-02-28T06:19:43;44.27;;;24.23;;
5876;SDS011;2964;42.144;24.730;2024-02-28T06:22:10;40.47;;;24.37;;
5876;SDS011;2964;42.144;24.730;2024-02-28T06:24:38;37.23;;;24.70;;
5876;SDS011;2964;42.144;24.730;2024-02-28T06:27:04;47.53;;;23.37;;
5876;SDS011;2964;42.144;24.730;2024-02-28T06:29:37;55.57;;;24.47;;
5876;SDS011;2964;42.144;24.730;2024-02-28T06:32:04;47.60;;;24.77;;
5876;SDS011;2964;42.144;24.730;2024-02-28T06:34:30;42.93;;;24.60;;
5876;SDS011;2964;42.144;24.730;2024-02-28T06:36:57;46.50;;;24.97;;
5876;SDS011;2964;42.144;24.730;2024-02-28T06:39:24;45.93;;;23.77;;
5876;SDS011;2964;42.144;24.730;2024-02-28T06:41:52;48.27;;;25.13;;
5876;SDS011;2964;42.144;24.730;2024-02-28T06:44:18;38.57;;;23.77;;
5876;SDS011;2964;42.144;24.730;2024-02-28T06:46:45;45.00;;;24.67;;
5876;SDS011;2964;42.144;24.730;2024-02-28T06:49:12;60.30;;;25.77;;
5876;SDS011;2964;42.144;24.730;2024-02-28T06:51:38;50.27;;;24.13;;
5876;SDS011;2964;42.144;24.730;2024-02-28T06:54:05;31.17;;;21.70;;
5876;SDS011;2964;42.144;24.730;2024-02-28T06:56:32;34.20;;;21.00;;
5876;SDS011;2964;42.144;24.730;2024-02-28T06:59:00;36.90;;;24.00;;
5876;SDS011;2964;42.144;24.730;2024-02-28T07:01:26;35.33;;;23.00;;
5876;SDS011;2964;42.144;24.730;2024-02-28T07:03:53;38.17;;;23.17;;
5876;SDS011;2964;42.144;24.730;2024-02-28T07:06:20;35.67;;;22.60;;
5876;SDS011;2964;42.144;24.730;2024-02-28T07:08:46;33.00;;;23.97;;
5876;SDS011;2964;42.144;24.730;2024-02-28T07:11:13;39.83;;;22.30;;
5876;SDS011;2964;42.144;24.730;2024-02-28T07:13:40;35.50;;;21.50;;
5876;SDS011;2964;42.144;24.730;2024-02-28T07:16:08;35.87;;;22.00;;
5876;SDS011;2964;42.144;24.730;2024-02-28T07:18:35;42.87;;;23.57;;
5876;SDS011;2964;42.144;24.730;2024-02-28T07:21:02;39.53;;;22.73;;
5876;SDS011;2964;42.144;24.730;2024-02-28T07:23:28;39.93;;;20.30;;
5876;SDS011;2964;42.144;24.730;2024-02-28T07:25:55;44.10;;;23.33;;
5876;SDS011;2964;42.144;24.730;2024-02-28T07:28:22;42.67;;;22.43;;
5876;SDS011;2964;42.144;24.730;2024-02-28T07:30:48;49.23;;;21.90;;
5876;SDS011;2964;42.144;24.730;2024-02-28T07:33:16;51.60;;;23.90;;
5876;SDS011;2964;42.144;24.730;2024-02-28T07:35:44;41.27;;;20.47;;
5876;SDS011;2964;42.144;24.730;2024-02-28T07:38:11;41.63;;;19.33;;
5876;SDS011;2964;42.144;24.730;2024-02-28T07:40:37;40.47;;;19.17;;
5876;SDS011;2964;42.144;24.730;2024-02-28T07:43:04;36.17;;;19.43;;
5876;SDS011;2964;42.144;24.730;2024-02-28T07:45:31;38.03;;;20.30;;
5876;SDS011;2964;42.144;24.730;2024-02-28T07:47:57;34.60;;;20.63;;
5876;SDS011;2964;42.144;24.730;2024-02-28T07:50:25;40.47;;;20.43;;
5876;SDS011;2964;42.144;24.730;2024-02-28T07:52:53;33.30;;;20.93;;
5876;SDS011;2964;42.144;24.730;2024-02-28T07:55:21;33.37;;;19.53;;
5876;SDS011;2964;42.144;24.730;2024-02-28T07:57:50;36.33;;;19.97;;
5876;SDS011;2964;42.144;24.730;2024-02-28T08:00:17;42.90;;;22.17;;
5876;SDS011;2964;42.144;24.730;2024-02-28T08:02:45;43.43;;;23.07;;
5876;SDS011;2964;42.144;24.730;2024-02-28T08:05:12;37.93;;;22.53;;
5876;SDS011;2964;42.144;24.730;2024-02-28T08:07:41;43.63;;;22.77;;
5876;SDS011;2964;42.144;24.730;2024-02-28T08:10:08;39.20;;;22.70;;
5876;SDS011;2964;42.144;24.730;2024-02-28T08:12:36;36.77;;;21.80;;
5876;SDS011;2964;42.144;24.730;2024-02-28T08:15:03;41.53;;;20.60;;
5876;SDS011;2964;42.144;24.730;2024-02-28T08:17:30;35.60;;;21.10;;
5876;SDS011;2964;42.144;24.730;2024-02-28T08:19:57;38.13;;;22.93;;
5876;SDS011;2964;42.144;24.730;2024-02-28T08:22:24;34.70;;;21.30;;
5876;SDS011;2964;42.144;24.730;2024-02-28T08:24:52;49.43;;;21.10;;
5876;SDS011;2964;42.144;24.730;2024-02-28T08:27:19;38.30;;;21.33;;
5876;SDS011;2964;42.144;24.730;2024-02-28T08:29:48;33.33;;;19.63;;
5876;SDS011;2964;42.144;24.730;2024-02-28T08:32:15;39.90;;;21.73;;
5876;SDS011;2964;42.144;24.730;2024-02-28T08:34:44;39.50;;;21.47;;
5876;SDS011;2964;42.144;24.730;2024-02-28T08:37:11;41.87;;;22.80;;
5876;SDS011;2964;42.144;24.730;2024-02-28T08:39:38;34.77;;;20.57;;
5876;SDS011;2964;42.144;24.730;2024-02-28T08:42:06;43.10;;;19.63;;
5876;SDS011;2964;42.144;24.730;2024-02-28T08:44:33;33.20;;;19.07;;
5876;SDS011;2964;42.144;24.730;2024-02-28T08:47:00;34.40;;;19.87;;
5876;SDS011;2964;42.144;24.730;2024-02-28T08:49:26;42.90;;;20.63;;
5876;SDS011;2964;42.144;24.730;2024-02-28T08:51:53;24.30;;;17.70;;
5876;SDS011;2964;42.144;24.730;2024-02-28T08:54:20;32.10;;;18.40;;
5876;SDS011;2964;42.144;24.730;2024-02-28T08:56:46;33.57;;;20.13;;
5876;SDS011;2964;42.144;24.730;2024-02-28T08:59:14;30.57;;;19.70;;
5876;SDS011;2964;42.144;24.730;2024-02-28T09:01:41;34.03;;;19.43;;
5876;SDS011;2964;42.144;24.730;2024-02-28T09:04:08;30.40;;;19.47;;
5876;SDS011;2964;42.144;24.730;2024-02-28T09:06:35;33.83;;;20.37;;
5876;SDS011;2964;42.144;24.730;2024-02-28T09:09:01;36.47;;;18.93;;
5876;SDS011;2964;42.144;24.730;2024-02-28T09:11:29;36.93;;;19.23;;
5876;SDS011;2964;42.144;24.730;2024-02-28T09:13:55;39.30;;;21.90;;
5876;SDS011;2964;42.144;24.730;2024-02-28T09:16:23;36.77;;;23.07;;
5876;SDS011;2964;42.144;24.730;2024-02-28T09:18:50;31.63;;;20.53;;
5876;SDS011;2964;42.144;24.730;2024-02-28T09:21:17;33.90;;;19.67;;
5876;SDS011;2964;42.144;24.730;2024-02-28T09:23:43;31.83;;;16.90;;
5876;SDS011;2964;42.144;24.730;2024-02-28T09:26:10;31.90;;;19.20;;
5876;SDS011;2964;42.144;24.730;2024-02-28T09:28:37;31.00;;;20.87;;
5876;SDS011;2964;42.144;24.730;2024-02-28T09:31:04;29.53;;;18.17;;
5876;SDS011;2964;42.144;24.730;2024-02-28T09:33:32;37.30;;;19.70;;
5876;SDS011;2964;42.144;24.730;2024-02-28T09:36:01;37.70;;;19.80;;
5876;SDS011;2964;42.144;24.730;2024-02-28T09:38:28;36.27;;;21.37;;
5876;SDS011;2964;42.144;24.730;2024-02-28T09:40:55;32.17;;;20.90;;
5876;SDS011;2964;42.144;24.730;2024-02-28T09:43:23;37.50;;;21.53;;
5876;SDS011;2964;42.144;24.730;2024-02-28T09:45:54;38.20;;;21.43;;
5876;SDS011;2964;42.144;24.730;2024-02-28T09:48:25;28.77;;;19.47;;
5876;SDS011;2964;42.144;24.730;2024-02-28T09:50:55;31.47;;;18.90;;
5876;SDS011;2964;42.144;24.730;2024-02-28T09:53:22;29.83;;;19.90;;
5876;SDS011;2964;42.144;24.730;2024-02-28T09:55:50;27.63;;;17.43;;
5876;SDS011;2964;42.144;24.730;2024-02-28T09:58:18;30.53;;;18.83;;
5876;SDS011;2964;42.144;24.730;2024-02-28T10:00:46;32.00;;;21.80;;
5876;SDS011;2964;42.144;24.730;2024-02-28T10:03:13;37.33;;;21.73;;
5876;SDS011;2964;42.144;24.730;2024-02-28T10:05:43;32.50;;;20.17;;
5876;SDS011;2964;42.144;24.730;2024-02-28T10:08:12;30.73;;;18.50;;
5876;SDS011;2964;42.144;24.730;2024-02-28T10:10:44;26.20;;;18.07;;
5876;SDS011;2964;42.144;24.730;2024-02-28T10:13:11;25.83;;;17.37;;
5876;SDS011;2964;42.144;24.730;2024-02-28T10:15:38;30.37;;;18.73;;
5876;SDS011;2964;42.144;24.730;2024-02-28T10:18:05;32.50;;;21.17;;
5876;SDS011;2964;42.144;24.730;2024-02-28T10:20:32;28.20;;;20.63;;
5876;SDS011;2964;42.144;24.730;2024-02-28T10:22:58;37.70;;;21.23;;
5876;SDS011;2964;42.144;24.730;2024-02-28T10:25:27;34.27;;;20.10;;
5876;SDS011;2964;42.144;24.730;2024-02-28T10:27:58;35.40;;;20.20;;
5876;SDS011;2964;42.144;24.730;2024-02-28T10:30:25;32.57;;;20.47;;
5876;SDS011;2964;42.144;24.730;2024-02-28T10:32:52;35.97;;;20.70;;
5876;SDS011;2964;42.144;24.730;2024-02-28T10:35:19;36.77;;;20.87;;
5876;SDS011;2964;42.144;24.730;2024-02-28T10:37:50;35.77;;;19.97;;
5876;SDS011;2964;42.144;24.730;2024-02-28T10:40:17;27.37;;;19.03;;
5876;SDS011;2964;42.144;24.730;2024-02-28T10:42:47;39.30;;;20.63;;
5876;SDS011;2964;42.144;24.730;2024-02-28T10:45:15;27.30;;;20.00;;
5876;SDS011;2964;42.144;24.730;2024-02-28T10:47:43;32.13;;;20.50;;
5876;SDS011;2964;42.144;24.730;2024-02-28T10:50:12;28.60;;;20.13;;
5876;SDS011;2964;42.144;24.730;2024-02-28T10:52:42;28.33;;;19.33;;
5876;SDS011;2964;42.144;24.730;2024-02-28T10:55:12;37.10;;;20.17;;
5876;SDS011;2964;42.144;24.730;2024-02-28T10:57:42;32.90;;;20.90;;
5876;SDS011;2964;42.144;24.730;2024-02-28T11:00:13;31.50;;;19.30;;
5876;SDS011;2964;42.144;24.730;2024-02-28T11:02:41;30.87;;;20.07;;
5876;SDS011;2964;42.144;24.730;2024-02-28T11:05:08;34.00;;;20.33;;
5876;SDS011;2964;42.144;24.730;2024-02-28T11:07:35;32.23;;;20.87;;
5876;SDS011;2964;42.144;24.730;2024-02-28T11:10:04;36.60;;;19.43;;
5876;SDS011;2964;42.144;24.730;2024-02-28T11:12:31;31.73;;;19.23;;
5876;SDS011;2964;42.144;24.730;2024-02-28T11:14:58;32.13;;;18.63;;
5876;SDS011;2964;42.144;24.730;2024-02-28T11:17:27;30.57;;;18.37;;
5876;SDS011;2964;42.144;24.730;2024-02-28T11:19:54;25.33;;;18.03;;
5876;SDS011;2964;42.144;24.730;2024-02-28T11:22:21;26.37;;;18.33;;
5876;SDS011;2964;42.144;24.730;2024-02-28T11:24:48;25.53;;;17.57;;
5876;SDS011;2964;42.144;24.730;2024-02-28T11:27:16;30.80;;;19.47;;
5876;SDS011;2964;42.144;24.730;2024-02-28T11:29:42;25.27;;;17.00;;
5876;SDS011;2964;42.144;24.730;2024-02-28T11:32:11;32.23;;;18.40;;
5876;SDS011;2964;42.144;24.730;2024-02-28T11:34:40;26.37;;;17.87;;
5876;SDS011;2964;42.144;24.730;2024-02-28T11:37:06;27.97;;;17.23;;
5876;SDS011;2964;42.144;24.730;2024-02-28T11:39:34;29.07;;;17.67;;
5876;SDS011;2964;42.144;24.730;2024-02-28T11:42:11;35.13;;;18.27;;
5876;SDS011;2964;42.144;24.730;2024-02-28T11:44:39;30.47;;;18.17;;
5876;SDS011;2964;42.144;24.730;2024-02-28T11:47:08;36.90;;;17.17;;
5876;SDS011;2964;42.144;24.730;2024-02-28T11:49:35;31.37;;;18.30;;
5876;SDS011;2964;42.144;24.730;2024-02-28T11:52:04;27.57;;;17.00;;
5876;SDS011;2964;42.144;24.730;2024-02-28T11:54:30;26.73;;;15.87;;
5876;SDS011;2964;42.144;24.730;2024-02-28T11:56:57;21.50;;;15.73;;
5876;SDS011;2964;42.144;24.730;2024-02-28T11:59:24;24.97;;;17.30;;
5876;SDS011;2964;42.144;24.730;2024-02-28T12:01:51;25.97;;;17.13;;
5876;SDS011;2964;42.144;24.730;2024-02-28T12:04:18;27.70;;;17.17;;
5876;SDS011;2964;42.144;24.730;2024-02-28T12:06:45;24.77;;;15.47;;
5876;SDS011;2964;42.144;24.730;2024-02-28T12:09:13;26.53;;;15.33;;
5876;SDS011;2964;42.144;24.730;2024-02-28T12:11:40;23.17;;;14.70;;
5876;SDS011;2964;42.144;24.730;2024-02-28T12:14:07;28.80;;;14.20;;
5876;SDS011;2964;42.144;24.730;2024-02-28T12:16:36;17.33;;;14.93;;
5876;SDS011;2964;42.144;24.730;2024-02-28T12:19:04;17.07;;;13.70;;
5876;SDS011;2964;42.144;24.730;2024-02-28T12:21:33;17.20;;;12.73;;
5876;SDS011;2964;42.144;24.730;2024-02-28T12:23:59;19.73;;;13.40;;
5876;SDS011;2964;42.144;24.730;2024-02-28T12:26:28;18.60;;;14.80;;
5876;SDS011;2964;42.144;24.730;2024-02-28T12:28:54;18.23;;;13.33;;
5876;SDS011;2964;42.144;24.730;2024-02-28T12:31:21;18.97;;;14.97;;
5876;SDS011;2964;42.144;24.730;2024-02-28T12:33:48;22.70;;;14.63;;
5876;SDS011;2964;42.144;24.730;2024-02-28T12:36:15;21.93;;;15.60;;
5876;SDS011;2964;42.144;24.730;2024-02-28T12:38:41;18.70;;;14.07;;
5876;SDS011;2964;42.144;24.730;2024-02-28T12:41:08;22.10;;;15.87;;
5876;SDS011;2964;42.144;24.730;2024-02-28T12:43:38;22.80;;;14.50;;
5876;SDS011;2964;42.144;24.730;2024-02-28T12:46:05;21.60;;;14.90;;
5876;SDS011;2964;42.144;24.730;2024-02-28T12:48:36;19.70;;;15.40;;
5876;SDS011;2964;42.144;24.730;2024-02-28T12:51:03;27.53;;;16.70;;
5876;SDS011;2964;42.144;24.730;2024-02-28T12:53:31;22.07;;;16.03;;
5876;SDS011;2964;42.144;24.730;2024-02-28T12:55:58;17.17;;;15.33;;
5876;SDS011;2964;42.144;24.730;2024-02-28T12:58:24;22.40;;;16.17;;
5876;SDS011;2964;42.144;24.730;2024-02-28T13:00:53;18.77;;;15.40;;
5876;SDS011;2964;42.144;24.730;2024-02-28T13:03:20;21.20;;;14.40;;
5876;SDS011;2964;42.144;24.730;2024-02-28T13:05:46;27.07;;;16.57;;
5876;SDS011;2964;42.144;24.730;2024-02-28T13:08:13;23.07;;;16.23;;
5876;SDS011;2964;42.144;24.730;2024-02-28T13:10:40;20.57;;;15.50;;
5876;SDS011;2964;42.144;24.730;2024-02-28T13:13:07;24.33;;;13.93;;
5876;SDS011;2964;42.144;24.730;2024-02-28T13:15:33;25.73;;;15.43;;
5876;SDS011;2964;42.144;24.730;2024-02-28T13:18:02;21.63;;;15.83;;
5876;SDS011;2964;42.144;24.730;2024-02-28T13:20:33;19.53;;;15.87;;
5876;SDS011;2964;42.144;24.730;2024-02-28T13:22:59;27.43;;;16.43;;
5876;SDS011;2964;42.144;24.730;2024-02-28T13:25:26;29.07;;;15.93;;
5876;SDS011;2964;42.144;24.730;2024-02-28T13:27:53;24.13;;;15.90;;
5876;SDS011;2964;42.144;24.730;2024-02-28T13:30:19;22.83;;;15.90;;
5876;SDS011;2964;42.144;24.730;2024-02-28T13:32:47;21.57;;;15.97;;
5876;SDS011;2964;42.144;24.730;2024-02-28T13:35:15;27.50;;;15.87;;
5876;SDS011;2964;42.144;24.730;2024-02-28T13:37:42;24.17;;;16.30;;
5876;SDS011;2964;42.144;24.730;2024-02-28T13:40:09;25.07;;;15.90;;
5876;SDS011;2964;42.144;24.730;2024-02-28T13:42:36;24.47;;;14.97;;
5876;SDS011;2964;42.144;24.730;2024-02-28T13:45:04;22.60;;;15.73;;
5876;SDS011;2964;42.144;24.730;2024-02-28T13:47:32;27.83;;;16.10;;
5876;SDS011;2964;42.144;24.730;2024-02-28T13:49:59;23.07;;;16.37;;
5876;SDS011;2964;42.144;24.730;2024-02-28T13:52:27;23.27;;;17.23;;
5876;SDS011;2964;42.144;24.730;2024-02-28T13:54:54;23.00;;;15.80;;
5876;SDS011;2964;42.144;24.730;2024-02-28T13:57:21;19.40;;;15.13;;
5876;SDS011;2964;42.144;24.730;2024-02-28T13:59:47;21.43;;;15.37;;
5876;SDS011;2964;42.144;24.730;2024-02-28T14:02:16;23.80;;;15.73;;
5876;SDS011;2964;42.144;24.730;2024-02-28T14:04:43;26.57;;;15.80;;
5876;SDS011;2964;42.144;24.730;2024-02-28T14:07:13;21.93;;;15.60;;
5876;SDS011;2964;42.144;24.730;2024-02-28T14:09:42;22.90;;;16.80;;
5876;SDS011;2964;42.144;24.730;2024-02-28T14:12:11;25.47;;;15.90;;
5876;SDS011;2964;42.144;24.730;2024-02-28T14:14:38;29.80;;;16.60;;
5876;SDS011;2964;42.144;24.730;2024-02-28T14:17:04;28.53;;;15.27;;
5876;SDS011;2964;42.144;24.730;2024-02-28T14:19:32;27.27;;;16.93;;
5876;SDS011;2964;42.144;24.730;2024-02-28T14:22:00;23.60;;;16.43;;
5876;SDS011;2964;42.144;24.730;2024-02-28T14:24:27;19.93;;;14.97;;
5876;SDS011;2964;42.144;24.730;2024-02-28T14:26:55;28.17;;;15.70;;
5876;SDS011;2964;42.144;24.730;2024-02-28T14:29:21;27.40;;;16.50;;
5876;SDS011;2964;42.144;24.730;2024-02-28T14:31:48;20.63;;;16.00;;
5876;SDS011;2964;42.144;24.730;2024-02-28T14:34:15;22.43;;;15.63;;
5876;SDS011;2964;42.144;24.730;2024-02-28T14:36:42;27.93;;;16.60;;